Time;durP1;ratioP1;P1;durP2;ratioP2;P2;SDS_P1;SDS_P2;PMS_P1;PMS_P2;Temp;Humidity;BMP_temperature;BMP_pressure;BME280_temperature;BME280_humidity;BME280_pressure;Samples;Min_cycle;Max_cycle;Signal;HPM_P1;HPM_P2
2022/08/08 00:02:37;;;;;;;;;4.50;3.00;;;;;21.95;35.34;101622.56;5065476;28;45491;-50
2022/08/08 00:05:12;;;;;;;;;3.00;3.00;;;;;21.90;34.77;101627.34;5066990;28;45457;-46
2022/08/08 00:07:40;;;;;;;;;2.25;2.25;;;;;21.88;34.84;101623.88;5068106;27;45561;-46
2022/08/08 00:10:28;;;;;;;;;6.00;3.00;;;;;21.87;34.83;101626.66;5069754;28;45335;-48
2022/08/08 00:13:29;;;;;;;;;5.00;4.50;;;;;21.86;34.77;101627.63;5074339;27;45291;-49
2022/08/08 00:16:00;;;;;;;;;3.50;1.00;;;;;21.85;35.55;101628.56;5063696;27;45433;-50
2022/08/08 00:18:33;;;;;;;;;2.00;2.00;;;;;21.83;35.86;101622.47;5066249;28;45172;-47
2022/08/08 00:21:00;;;;;;;;;6.25;3.00;;;;;21.81;35.85;101627.88;5065633;28;46366;-50
2022/08/08 00:23:45;;;;;;;;;2.25;2.25;;;;;21.79;35.98;101625.31;5071080;27;45394;-51
2022/08/08 00:26:24;;;;;;;;;2.75;2.75;;;;;21.74;35.65;101624.75;5072165;27;45288;-49
2022/08/08 00:28:53;;;;;;;;;4.50;2.25;;;;;21.70;35.43;101617.88;5059715;27;45703;-48
2022/08/08 00:31:23;;;;;;;;;3.75;2.00;;;;;21.66;35.90;101616.34;5069132;28;45350;-51
2022/08/08 00:37:32;;;;;;;;;3.00;2.00;;;;;21.54;36.32;101615.25;5068071;28;46020;-50
2022/08/08 00:40:16;;;;;;;;;6.75;2.50;;;;;21.49;37.72;101619.16;5057606;28;45501;-51
2022/08/08 00:43:10;;;;;;;;;2.75;2.50;;;;;21.39;37.19;101613.50;5069547;27;46203;-48
2022/08/08 00:45:44;;;;;;;;;4.25;3.00;;;;;21.33;37.22;101612.03;5062674;27;45826;-51
2022/08/08 00:48:43;;;;;;;;;3.50;2.00;;;;;21.26;38.04;101613.31;5078297;27;45509;-50
2022/08/08 00:51:37;;;;;;;;;3.75;3.00;;;;;21.22;38.22;101612.66;5072105;28;45390;-51
2022/08/08 00:54:21;;;;;;;;;4.50;2.00;;;;;21.20;37.93;101611.88;5065272;27;46000;-47
2022/08/08 00:57:17;;;;;;;;;3.50;2.75;;;;;21.16;37.69;101605.03;5072314;28;45398;-49
2022/08/08 01:00:01;;;;;;;;;2.25;2.00;;;;;21.12;37.63;101607.94;5067318;28;45647;-47
2022/08/08 01:03:00;;;;;;;;;3.75;3.75;;;;;21.08;37.63;101604.59;5063246;28;45241;-47
2022/08/08 01:05:56;;;;;;;;;4.00;1.75;;;;;21.02;37.82;101605.81;5081603;27;48448;-52
2022/08/08 01:08:59;;;;;;;;;3.00;3.00;;;;;21.01;38.16;101600.56;5064515;28;45466;-52
2022/08/08 01:11:38;;;;;;;;;3.00;3.00;;;;;20.99;37.89;101597.16;5069021;28;45494;-46
2022/08/08 01:14:25;;;;;;;;;4.50;2.25;;;;;20.99;38.07;101591.81;5067967;28;46902;-53
2022/08/08 01:17:17;;;;;;;;;5.00;3.00;;;;;20.97;38.36;101589.25;5064818;27;45409;-47
2022/08/08 01:20:20;;;;;;;;;5.25;3.00;;;;;20.94;38.02;101599.22;5070434;27;45424;-48
2022/08/08 01:23:16;;;;;;;;;3.75;2.75;;;;;20.91;38.01;101596.72;5070503;28;45455;-46
2022/08/08 01:25:53;;;;;;;;;4.00;4.00;;;;;20.89;38.60;101594.13;5062790;28;45325;-48
2022/08/08 01:28:47;;;;;;;;;4.25;4.00;;;;;20.87;38.77;101590.72;5065872;27;46188;-49
2022/08/08 01:31:40;;;;;;;;;5.00;3.50;;;;;20.83;38.89;101592.69;5074665;27;45613;-49
2022/08/08 01:34:53;;;;;;;;;5.75;3.50;;;;;20.82;38.74;101593.66;5071080;27;46160;-50
2022/08/08 01:37:39;;;;;;;;;2.75;2.25;;;;;20.81;39.42;101594.59;5053115;28;45221;-48
2022/08/08 01:40:39;;;;;;;;;7.00;4.25;;;;;20.78;39.32;101586.78;5060566;27;46219;-49
2022/08/08 01:43:31;;;;;;;;;5.00;4.50;;;;;20.76;39.60;101596.66;5060869;28;45280;-47
2022/08/08 01:46:20;;;;;;;;;5.75;3.25;;;;;20.73;39.68;101587.97;5060205;28;45318;-51
2022/08/08 01:49:00;;;;;;;;;3.00;3.00;;;;;20.67;39.57;101594.50;5070793;27;45565;-47
2022/08/08 01:51:38;;;;;;;;;4.25;3.00;;;;;20.60;39.74;101599.28;5070518;28;46913;-49
2022/08/08 01:54:19;;;;;;;;;6.75;5.00;;;;;20.56;39.68;101589.75;5089232;27;45463;-49
2022/08/08 01:57:18;;;;;;;;;5.50;3.50;;;;;20.54;40.28;101598.75;5064757;28;45509;-48
2022/08/08 01:59:56;;;;;;;;;5.00;3.00;;;;;20.51;39.38;101599.78;5070466;27;45547;-49
2022/08/08 02:02:35;;;;;;;;;3.50;3.00;;;;;20.47;39.56;101585.81;5073078;27;46149;-47
2022/08/08 02:05:17;;;;;;;;;7.00;5.00;;;;;20.46;39.87;101589.38;5067566;27;45316;-48
2022/08/08 02:08:09;;;;;;;;;6.50;4.00;;;;;20.43;39.65;101592.25;5065046;28;45344;-49
2022/08/08 02:10:59;;;;;;;;;6.00;3.50;;;;;20.42;39.67;101594.97;5059975;27;45509;-47
2022/08/08 02:13:49;;;;;;;;;5.25;5.25;;;;;20.41;40.26;101590.59;5068615;28;46307;-48
2022/08/08 02:16:52;;;;;;;;;9.00;5.00;;;;;20.38;41.20;101601.38;5063253;28;45326;-46
2022/08/08 02:19:26;;;;;;;;;6.25;5.25;;;;;20.31;41.43;101598.22;5079199;28;47155;-51
2022/08/08 02:25:03;;;;;;;;;6.75;6.00;;;;;20.23;40.60;101592.44;5073567;27;45681;-52
2022/08/08 02:27:37;;;;;;;;;4.75;4.00;;;;;20.21;40.62;101587.22;5072825;28;45706;-52
2022/08/08 02:30:30;;;;;;;;;5.25;5.00;;;;;20.18;41.43;101590.03;5075396;27;45473;-50
2022/08/08 02:33:07;;;;;;;;;5.00;4.00;;;;;20.16;40.67;101589.25;5065870;27;45507;-53
2022/08/08 02:35:53;;;;;;;;;4.25;3.75;;;;;20.17;40.53;101590.09;5068021;27;45335;-52
2022/08/08 02:38:29;;;;;;;;;3.25;3.25;;;;;20.17;40.62;101598.09;5071179;28;45392;-48
2022/08/08 02:41:16;;;;;;;;;5.00;5.00;;;;;20.20;40.68;101592.59;5073155;28;45462;-50
2022/08/08 02:44:19;;;;;;;;;6.50;5.25;;;;;20.22;40.72;101599.56;5076742;28;45452;-51
2022/08/08 02:47:04;;;;;;;;;5.75;5.75;;;;;20.19;41.84;101591.75;5075555;28;45347;-50
2022/08/08 02:49:41;;;;;;;;;6.25;4.50;;;;;20.15;41.45;101598.19;5064388;28;45610;-49
2022/08/08 02:52:17;;;;;;;;;8.00;5.00;;;;;20.15;41.00;101597.31;5074872;28;45530;-52
2022/08/08 02:55:13;;;;;;;;;9.00;6.00;;;;;20.13;41.12;101592.06;5058928;28;45387;-53
2022/08/08 02:58:00;;;;;;;;;7.25;6.25;;;;;20.12;41.46;101595.69;5078714;27;46080;-51
2022/08/08 03:00:44;;;;;;;;;7.00;4.25;;;;;20.10;40.82;101594.91;5071630;27;45883;-49
2022/08/08 03:03:21;;;;;;;;;6.00;5.00;;;;;20.11;41.96;101591.31;5070473;28;45573;-50
2022/08/08 03:06:17;;;;;;;;;5.75;4.75;;;;;20.06;41.36;101593.34;5067600;27;45348;-50
2022/08/08 03:08:45;;;;;;;;;3.75;3.75;;;;;20.05;41.28;101596.97;5073245;27;46131;-49
2022/08/08 03:11:41;;;;;;;;;6.00;6.00;;;;;20.02;42.25;101595.31;5070727;27;45637;-47
2022/08/08 03:14:31;;;;;;;;;5.00;5.00;;;;;19.95;41.95;101593.91;5070339;27;45587;-52
2022/08/08 03:17:10;;;;;;;;;6.25;5.00;;;;;19.89;41.97;101597.75;5075752;27;45294;-53
2022/08/08 03:20:05;;;;;;;;;5.25;5.25;;;;;19.85;42.65;101598.03;5059544;28;45479;-52
2022/08/08 03:22:31;;;;;;;;;5.75;5.75;;;;;19.79;42.08;101599.16;5078364;28;45470;-54
2022/08/08 03:24:58;;;;;;;;;5.00;5.00;;;;;19.77;42.27;101602.84;5076914;27;45541;-51
2022/08/08 03:27:36;;;;;;;;;8.75;5.00;;;;;19.72;43.09;101598.63;5072863;27;45474;-52
2022/08/08 03:30:11;;;;;;;;;9.00;8.00;;;;;19.66;43.50;101601.56;5076123;27;46146;-50
2022/08/08 03:35:22;;;;;;;;;4.50;4.00;;;;;19.63;42.40;101595.56;5080812;27;45358;-49
2022/08/08 03:37:48;;;;;;;;;7.00;6.25;;;;;19.62;42.45;101599.16;5072979;27;45277;-50
2022/08/08 03:40:16;;;;;;;;;5.75;5.25;;;;;19.60;42.50;101599.25;5071587;27;47128;-52
2022/08/08 03:42:41;;;;;;;;;8.00;5.00;;;;;19.59;42.18;101599.31;5075975;27;45745;-49
2022/08/08 03:45:22;;;;;;;;;5.25;5.00;;;;;19.57;42.90;101603.88;5067746;27;45335;-52
2022/08/08 03:48:07;;;;;;;;;8.50;6.00;;;;;19.52;42.77;101604.94;5065730;27;45448;-52
2022/08/08 03:50:35;;;;;;;;;5.50;4.50;;;;;19.49;44.02;101607.72;5066371;27;45479;-51
2022/08/08 03:53:13;;;;;;;;;9.75;6.00;;;;;19.45;42.90;101614.16;5073325;28;45350;-49
2022/08/08 03:55:41;;;;;;;;;7.00;6.00;;;;;19.45;43.69;101615.94;5063896;27;45400;-47
2022/08/08 03:58:07;;;;;;;;;6.75;5.75;;;;;19.43;42.54;101615.16;5063641;28;45275;-46
2022/08/08 04:00:33;;;;;;;;;8.00;6.50;;;;;19.44;42.73;101616.88;5064303;27;45863;-46
2022/08/08 04:03:04;;;;;;;;;4.50;4.00;;;;;19.45;42.85;101623.91;5073748;28;45433;-48
2022/08/08 04:05:34;;;;;;;;;7.00;6.25;;;;;19.44;43.15;101622.19;5066557;27;45540;-47
2022/08/08 04:08:02;;;;;;;;;9.25;7.75;;;;;19.44;42.96;101616.88;5071091;28;45539;-48
2022/08/08 04:10:28;;;;;;;;;5.75;5.75;;;;;19.43;43.04;101616.03;5062114;28;47979;-48
2022/08/08 04:12:54;;;;;;;;;7.25;5.00;;;;;19.46;42.44;101626.50;5081835;27;45770;-47
2022/08/08 04:15:20;;;;;;;;;6.50;5.25;;;;;19.49;42.92;101628.13;5065710;28;45543;-47
2022/08/08 04:17:45;;;;;;;;;5.25;5.25;;;;;19.49;43.13;101622.81;5072283;27;45487;-50
2022/08/08 04:20:11;;;;;;;;;9.50;7.00;;;;;19.46;43.33;101626.50;5066651;27;45541;-52
2022/08/08 04:22:36;;;;;;;;;5.50;4.75;;;;;19.43;43.24;101631.94;5074753;27;53633;-47
2022/08/08 04:25:03;;;;;;;;;4.50;4.50;;;;;19.38;43.59;101625.16;5066652;28;45473;-46
2022/08/08 04:27:28;;;;;;;;;6.00;5.75;;;;;19.34;43.19;101627.94;5067918;28;45303;-45
2022/08/08 04:29:54;;;;;;;;;7.00;7.00;;;;;19.33;43.37;101630.69;5075039;28;72473;-44
2022/08/08 04:32:19;;;;;;;;;7.25;6.00;;;;;19.30;43.88;101637.00;5069143;28;45741;-50
2022/08/08 04:34:45;;;;;;;;;7.00;5.75;;;;;19.26;44.38;101631.91;5083984;27;66647;-46
2022/08/08 04:37:11;;;;;;;;;6.00;5.50;;;;;19.21;43.72;101632.16;5066820;28;45554;-48
2022/08/08 04:39:36;;;;;;;;;8.00;6.00;;;;;19.20;44.15;101633.09;5066702;27;46198;-47
2022/08/08 04:42:02;;;;;;;;;7.25;6.00;;;;;19.19;44.35;101634.00;5063235;28;45496;-49
2022/08/08 04:44:27;;;;;;;;;7.00;7.00;;;;;19.16;44.41;101636.84;5076452;27;45443;-48
2022/08/08 04:46:54;;;;;;;;;9.75;8.00;;;;;19.14;44.13;101641.34;5070615;27;68924;-46
2022/08/08 04:49:19;;;;;;;;;8.50;6.00;;;;;19.11;44.13;101634.41;5062995;28;47041;-47
2022/08/08 04:51:44;;;;;;;;;11.00;6.25;;;;;19.11;44.26;101633.53;5082667;27;46067;-48
2022/08/08 04:54:10;;;;;;;;;10.50;7.25;;;;;19.10;44.20;101645.94;5064052;27;66700;-49
2022/08/08 04:56:36;;;;;;;;;7.00;6.00;;;;;19.07;45.14;101648.75;5064690;28;70178;-48
2022/08/08 04:59:01;;;;;;;;;7.00;7.00;;;;;19.04;44.67;101648.88;5068469;27;45503;-48
2022/08/08 05:01:27;;;;;;;;;10.25;7.25;;;;;19.03;44.11;101643.66;5073077;27;51610;-47
2022/08/08 05:03:52;;;;;;;;;11.00;8.00;;;;;19.03;44.84;101651.59;5075859;27;61589;-46
2022/08/08 05:06:17;;;;;;;;;17.00;8.00;;;;;19.01;44.37;101653.47;5063651;27;63525;-49
2022/08/08 05:08:43;;;;;;;;;9.50;7.00;;;;;19.00;44.58;101649.97;5071617;27;66182;-47
2022/08/08 05:11:12;;;;;;;;;7.50;7.00;;;;;19.00;44.42;101655.28;5062870;28;45706;-47
2022/08/08 05:13:41;;;;;;;;;9.75;7.75;;;;;18.99;44.14;101656.22;5068536;28;45360;-49
2022/08/08 05:16:07;;;;;;;;;6.75;4.75;;;;;18.99;44.47;101658.00;5072486;28;45330;-47
2022/08/08 05:18:32;;;;;;;;;6.00;6.00;;;;;19.00;44.35;101657.94;5072898;27;45466;-52
2022/08/08 05:20:58;;;;;;;;;7.00;7.00;;;;;19.02;44.71;101660.53;5074882;27;47757;-46
2022/08/08 05:23:24;;;;;;;;;11.75;7.00;;;;;19.03;44.42;101655.13;5062658;28;45360;-48
2022/08/08 05:25:50;;;;;;;;;8.00;7.00;;;;;19.06;44.61;101656.78;5065252;28;45410;-46
2022/08/08 05:28:16;;;;;;;;;11.00;8.50;;;;;19.06;45.28;101660.28;5062199;27;46082;-49
2022/08/08 05:30:41;;;;;;;;;9.00;8.50;;;;;19.02;44.79;101658.72;5064564;28;45501;-48
2022/08/08 05:33:06;;;;;;;;;9.50;7.50;;;;;19.03;44.91;101663.06;5065886;27;55816;-46
2022/08/08 05:35:33;;;;;;;;;10.75;8.00;;;;;19.02;45.14;101671.97;5064344;28;67846;-52
2022/08/08 05:38:04;;;;;;;;;8.75;7.50;;;;;19.01;45.37;101666.75;5073304;27;47024;-50
2022/08/08 05:40:33;;;;;;;;;6.00;4.50;;;;;19.00;45.03;101672.97;5076127;27;45428;-47
2022/08/08 05:43:03;;;;;;;;;8.75;5.50;;;;;18.99;45.63;101681.88;5068336;28;45298;-48
2022/08/08 05:45:32;;;;;;;;;7.75;7.00;;;;;18.93;45.14;101672.44;5063788;27;45701;-50
2022/08/08 05:47:59;;;;;;;;;9.50;7.75;;;;;18.88;46.30;101682.38;5063521;28;46166;-51
2022/08/08 05:50:30;;;;;;;;;13.50;9.50;;;;;18.86;44.92;101678.94;5069876;28;45399;-47
2022/08/08 05:52:55;;;;;;;;;9.00;9.00;;;;;18.87;45.18;101678.00;5080638;27;45416;-45
2022/08/08 05:55:21;;;;;;;;;11.00;11.00;;;;;18.89;45.45;101684.09;5071452;27;68163;-50
2022/08/08 05:57:50;;;;;;;;;9.50;7.75;;;;;18.91;45.38;101677.81;5074387;28;46111;-50
2022/08/08 06:00:16;;;;;;;;;11.50;10.00;;;;;18.94;45.54;101674.97;5067100;27;45248;-49
2022/08/08 06:05:31;;;;;;;;;10.50;8.00;;;;;18.97;46.15;101685.44;5068830;28;45603;-50
2022/08/08 06:07:57;;;;;;;;;11.75;8.50;;;;;19.03;45.21;101681.66;5068684;27;46243;-48
2022/08/08 06:10:22;;;;;;;;;11.75;8.50;;;;;19.05;45.92;101685.13;5077009;27;45415;-53
2022/08/08 06:12:49;;;;;;;;;9.75;7.00;;;;;19.07;44.97;101687.66;5075384;27;63845;-52
2022/08/08 06:15:14;;;;;;;;;10.00;9.00;;;;;19.12;45.67;101696.28;5063921;27;45798;-52
2022/08/08 06:17:40;;;;;;;;;8.00;8.00;;;;;19.12;45.02;101688.31;5073600;27;62797;-53
2022/08/08 06:20:09;;;;;;;;;11.75;10.00;;;;;19.15;45.08;101696.13;5063095;28;45445;-52
2022/08/08 06:22:34;;;;;;;;;10.50;9.75;;;;;19.15;45.56;101701.44;5072251;27;45539;-52
2022/08/08 06:25:00;;;;;;;;;11.00;8.00;;;;;19.14;45.45;101700.59;5068507;27;48595;-51
2022/08/08 06:27:32;;;;;;;;;11.00;9.50;;;;;19.16;45.35;101704.03;5072243;27;45540;-50
2022/08/08 06:30:08;;;;;;;;;13.00;11.00;;;;;19.14;45.95;101710.31;5073813;27;45775;-49
2022/08/08 06:32:40;;;;;;;;;9.00;8.00;;;;;19.11;45.54;101715.78;5072500;27;45248;-47
2022/08/08 06:35:09;;;;;;;;;7.00;6.00;;;;;19.13;45.48;101713.91;5071879;28;45246;-48
2022/08/08 06:37:37;;;;;;;;;14.75;9.75;;;;;19.18;45.08;101717.22;5068573;27;45811;-49
2022/08/08 06:40:05;;;;;;;;;6.00;4.25;;;;;19.21;45.61;101716.19;5079214;27;45393;-50
2022/08/08 06:42:36;;;;;;;;;8.25;6.75;;;;;19.25;44.92;101713.34;5074241;27;45357;-47
2022/08/08 06:45:06;;;;;;;;;14.50;9.25;;;;;19.28;45.46;101715.84;5070947;27;45484;-46
2022/08/08 06:47:33;;;;;;;;;8.25;8.00;;;;;19.34;45.03;101722.66;5078412;27;46408;-48
2022/08/08 06:49:59;;;;;;;;;8.25;8.00;;;;;19.39;45.27;101720.66;5075253;27;45934;-46
2022/08/08 06:52:26;;;;;;;;;8.25;7.25;;;;;19.44;44.90;101715.09;5066446;28;45304;-48
2022/08/08 06:54:51;;;;;;;;;10.75;9.25;;;;;19.49;45.22;101715.72;5072780;28;45370;-51
2022/08/08 06:57:17;;;;;;;;;9.25;7.50;;;;;19.56;44.67;101725.13;5066904;28;46371;-51
2022/08/08 06:59:42;;;;;;;;;12.50;10.00;;;;;19.58;44.81;101719.72;5062731;28;68334;-50
2022/08/08 07:02:21;;;;;;;;;9.00;8.00;;;;;19.62;44.88;101714.22;5065424;28;45907;-50
2022/08/08 07:04:56;;;;;;;;;7.50;7.50;;;;;19.67;44.88;101716.63;5076484;27;45212;-50
2022/08/08 07:07:40;;;;;;;;;10.75;7.75;;;;;19.72;44.51;101720.78;5076458;28;46259;-51
2022/08/08 07:10:08;;;;;;;;;10.75;8.75;;;;;19.80;44.41;101724.88;5066177;28;45797;-50
2022/08/08 07:12:41;;;;;;;;;12.00;9.25;;;;;19.84;44.54;101729.97;5079512;27;45431;-52
2022/08/08 07:15:09;;;;;;;;;8.00;8.00;;;;;19.90;44.00;101729.66;5055824;28;45439;-50
2022/08/08 07:18:03;;;;;;;;;12.50;9.00;;;;;19.97;44.30;101735.50;5071215;28;45572;-48
2022/08/08 07:20:30;;;;;;;;;9.50;8.00;;;;;20.02;43.71;101743.25;5072533;28;45972;-50
2022/08/08 07:23:28;;;;;;;;;8.75;6.50;;;;;20.06;43.92;101743.03;5091243;27;45365;-48
2022/08/08 07:25:55;;;;;;;;;9.75;7.50;;;;;20.12;44.26;101747.16;5073298;27;45354;-48
2022/08/08 07:28:25;;;;;;;;;9.50;8.00;;;;;20.14;43.67;101745.28;5080841;27;45441;-51
2022/08/08 07:30:50;;;;;;;;;11.50;7.25;;;;;20.18;43.69;101738.88;5078618;27;45980;-50
2022/08/08 07:33:18;;;;;;;;;10.50;6.00;;;;;20.24;43.43;101743.03;5069054;28;45433;-48
2022/08/08 07:35:46;;;;;;;;;7.00;7.00;;;;;20.29;43.20;101755.13;5075556;27;45517;-47
2022/08/08 07:38:12;;;;;;;;;9.25;7.75;;;;;20.35;43.41;101753.09;5078651;27;45563;-47
2022/08/08 07:40:38;;;;;;;;;10.75;8.00;;;;;20.44;43.08;101744.63;5073722;27;69197;-48
2022/08/08 07:43:04;;;;;;;;;8.25;7.75;;;;;20.52;42.95;101747.75;5059260;27;45675;-48
2022/08/08 07:45:30;;;;;;;;;7.75;7.00;;;;;20.60;42.82;101748.19;5073466;27;45508;-48
2022/08/08 07:47:57;;;;;;;;;8.75;6.75;;;;;20.68;42.72;101753.13;5061971;28;47337;-50
2022/08/08 07:50:25;;;;;;;;;9.00;7.50;;;;;20.75;42.51;101757.22;5078811;27;45711;-50
2022/08/08 07:52:56;;;;;;;;;7.50;5.00;;;;;20.78;42.54;101751.72;5072889;27;45284;-51
2022/08/08 07:55:25;;;;;;;;;7.75;7.75;;;;;20.88;42.20;101749.44;5079170;27;45328;-49
2022/08/08 07:58:30;;;;;;;;;8.75;5.75;;;;;20.98;42.22;101755.09;5094442;27;45362;-50
2022/08/08 08:01:04;;;;;;;;;8.00;6.75;;;;;21.03;41.90;101753.91;5054087;27;45517;-51
2022/08/08 08:03:36;;;;;;;;;6.75;5.50;;;;;21.10;42.15;101748.25;5078553;27;45281;-48
2022/08/08 08:06:05;;;;;;;;;9.00;5.75;;;;;21.17;42.03;101754.94;5066850;28;45485;-48
2022/08/08 08:08:41;;;;;;;;;9.50;7.50;;;;;21.24;41.75;101751.00;5079110;28;46139;-51
2022/08/08 08:11:19;;;;;;;;;5.50;5.50;;;;;21.32;41.46;101750.56;5095774;27;45227;-52
2022/08/08 08:13:52;;;;;;;;;4.00;3.25;;;;;21.37;41.61;101745.84;5075906;28;45600;-55
2022/08/08 08:16:22;;;;;;;;;7.00;5.75;;;;;21.45;41.61;101746.28;5077596;27;45254;-49
2022/08/08 08:18:55;;;;;;;;;8.75;6.00;;;;;21.51;41.33;101748.59;5072761;27;45358;-50
2022/08/08 08:21:21;;;;;;;;;6.00;6.00;;;;;21.59;40.97;101756.19;5078604;28;45835;-51
2022/08/08 08:23:47;;;;;;;;;6.00;5.00;;;;;21.68;41.00;101750.31;5087738;27;45378;-49
2022/08/08 08:26:12;;;;;;;;;6.00;5.00;;;;;21.79;40.53;101749.69;5069793;27;45341;-49
2022/08/08 08:28:39;;;;;;;;;9.00;6.00;;;;;21.90;40.54;101751.72;5055437;28;46300;-49
2022/08/08 08:31:05;;;;;;;;;5.25;5.25;;;;;21.97;40.25;101761.06;5070802;28;45872;-50
2022/08/08 08:33:31;;;;;;;;;6.75;4.50;;;;;22.06;40.13;101760.56;5079033;27;45368;-48
2022/08/08 08:35:56;;;;;;;;;7.75;5.00;;;;;22.14;39.84;101752.94;5078000;27;45598;-51
2022/08/08 08:38:22;;;;;;;;;7.00;6.00;;;;;22.20;39.51;101754.38;5071303;28;45227;-51
2022/08/08 08:40:48;;;;;;;;;7.50;5.50;;;;;22.28;39.51;101756.63;5080242;27;45463;-48
2022/08/08 08:43:16;;;;;;;;;5.00;5.00;;;;;22.36;39.42;101757.00;5068977;28;45271;-48
2022/08/08 08:45:42;;;;;;;;;10.25;6.25;;;;;22.43;39.44;101760.16;5070254;27;45324;-52
2022/08/08 08:48:08;;;;;;;;;7.00;6.00;;;;;22.49;39.18;101760.66;5070664;28;46443;-50
2022/08/08 08:50:34;;;;;;;;;9.25;7.75;;;;;22.50;38.44;101751.69;5075439;28;45350;-52
2022/08/08 08:53:02;;;;;;;;;5.25;5.25;;;;;22.57;38.51;101749.50;5068894;28;45357;-53
2022/08/08 08:55:27;;;;;;;;;6.25;5.50;;;;;22.64;38.43;101750.84;5072957;28;45516;-51
2022/08/08 08:57:54;;;;;;;;;9.00;5.50;;;;;22.74;38.08;101753.81;5069928;28;64918;-53
2022/08/08 09:00:19;;;;;;;;;5.75;5.00;;;;;22.82;38.17;101759.50;5086558;27;73155;-48
2022/08/08 09:02:46;;;;;;;;;6.00;5.00;;;;;22.87;37.93;101751.22;5061457;28;45567;-48
2022/08/08 09:05:12;;;;;;;;;5.50;4.75;;;;;23.01;37.55;101747.69;5072728;27;72213;-50
2022/08/08 09:07:40;;;;;;;;;8.00;5.75;;;;;23.12;37.60;101742.56;5055599;28;47288;-53
2022/08/08 09:10:06;;;;;;;;;5.75;4.75;;;;;23.23;37.34;101749.88;5078190;28;45282;-50
2022/08/08 09:12:34;;;;;;;;;5.50;5.50;;;;;23.34;37.28;101750.06;5068916;27;45441;-51
2022/08/08 09:14:59;;;;;;;;;6.50;4.50;;;;;23.48;37.24;101746.50;5082911;27;45267;-51
2022/08/08 09:17:25;;;;;;;;;4.00;3.00;;;;;23.60;36.82;101743.00;5069331;28;45491;-51
2022/08/08 09:19:53;;;;;;;;;6.75;5.00;;;;;23.76;36.13;101745.53;5076289;27;45457;-51
2022/08/08 09:22:21;;;;;;;;;6.00;5.50;;;;;23.95;34.25;101746.97;5060139;28;45537;-54
2022/08/08 09:24:48;;;;;;;;;5.25;3.25;;;;;24.20;35.26;101740.81;5066677;27;45475;-54
2022/08/08 09:27:13;;;;;;;;;4.25;4.25;;;;;24.51;34.80;101742.22;5078309;28;45586;-53
2022/08/08 09:29:57;;;;;;;;;5.00;4.25;;;;;24.93;34.48;101741.97;5082892;27;45346;-53
2022/08/08 09:32:37;;;;;;;;;7.25;5.00;;;;;25.45;34.77;101740.06;5081605;27;45330;-54
2022/08/08 09:35:08;;;;;;;;;8.75;4.50;;;;;26.02;32.59;101733.13;5068009;28;45253;-59
2022/08/08 09:37:54;;;;;;;;;5.75;4.00;;;;;26.67;32.02;101734.34;5094792;27;48210;-55
2022/08/08 09:40:22;;;;;;;;;4.75;3.00;;;;;27.27;30.37;101730.38;5077672;27;45351;-53
2022/08/08 09:42:49;;;;;;;;;3.00;3.00;;;;;27.88;29.96;101728.06;5073287;27;45301;-52
2022/08/08 09:45:29;;;;;;;;;4.25;3.50;;;;;28.52;29.42;101738.66;5069647;28;45485;-50
2022/08/08 09:47:58;;;;;;;;;3.00;2.75;;;;;29.22;28.21;101725.34;5068041;28;45489;-52
2022/08/08 09:50:26;;;;;;;;;6.50;5.75;;;;;29.96;26.42;101737.47;5055930;28;45757;-54
2022/08/08 09:52:52;;;;;;;;;4.75;3.00;;;;;30.77;25.30;101742.34;5086948;27;45425;-52
2022/08/08 09:55:19;;;;;;;;;5.25;3.50;;;;;31.63;26.21;101733.03;5079284;27;45232;-54
2022/08/08 09:57:47;;;;;;;;;6.50;6.00;;;;;32.63;25.11;101740.88;5072370;27;46174;-53
2022/08/08 10:00:14;;;;;;;;;4.75;2.00;;;;;33.65;23.13;101736.25;5076601;27;45358;-54
2022/08/08 10:02:45;;;;;;;;;2.00;2.00;;;;;34.58;22.25;101730.38;5066288;27;45463;-55
2022/08/08 10:05:15;;;;;;;;;2.00;2.00;;;;;35.50;22.25;101734.28;5073873;27;45437;-55
2022/08/08 10:07:52;;;;;;;;;6.00;3.00;;;;;36.39;20.62;101717.31;5075863;27;47083;-56
2022/08/08 10:10:31;;;;;;;;;11.00;7.75;;;;;37.26;20.00;101726.59;5071717;27;45249;-55
2022/08/08 10:12:57;;;;;;;;;5.00;5.00;;;;;37.94;19.71;101722.38;5077574;27;45394;-56
2022/08/08 10:15:25;;;;;;;;;3.00;3.00;;;;;38.58;18.36;101722.41;5092669;27;45532;-58
2022/08/08 10:17:53;;;;;;;;;3.00;3.00;;;;;39.07;20.08;101719.44;5083023;27;47300;-57
2022/08/08 10:20:18;;;;;;;;;3.75;3.25;;;;;39.46;16.31;101726.00;5088487;27;45587;-56
2022/08/08 10:23:01;;;;;;;;;2.00;2.00;;;;;39.74;18.03;101710.47;5073432;28;45355;-55
2022/08/08 10:25:27;;;;;;;;;2.75;2.25;;;;;40.02;16.57;101710.22;5075096;27;45416;-56
2022/08/08 10:27:53;;;;;;;;;4.00;2.00;;;;;40.11;14.67;101714.44;5070911;28;46038;-55
2022/08/08 10:30:22;;;;;;;;;2.00;2.00;;;;;40.13;14.43;101716.97;5079743;28;45608;-56
2022/08/08 10:32:55;;;;;;;;;3.50;2.25;;;;;40.09;15.48;101702.84;5080985;27;45227;-56
2022/08/08 10:35:24;;;;;;;;;4.00;3.75;;;;;40.16;14.35;101706.41;5080632;27;45574;-56
2022/08/08 10:37:50;;;;;;;;;3.00;3.00;;;;;40.37;15.99;101702.56;5076222;27;46408;-59
2022/08/08 10:40:16;;;;;;;;;3.75;3.00;;;;;40.71;15.72;101702.41;5066846;28;45257;-56
2022/08/08 10:42:42;;;;;;;;;3.00;3.00;;;;;41.07;15.42;101699.06;5070892;27;45360;-55
2022/08/08 10:45:09;;;;;;;;;3.00;2.50;;;;;41.27;15.47;101698.13;5081704;27;45532;-56
2022/08/08 10:47:35;;;;;;;;;5.00;4.00;;;;;41.37;14.83;101703.97;5073567;27;45231;-53
2022/08/08 10:50:03;;;;;;;;;2.00;2.00;;;;;41.51;13.96;101699.19;5080295;27;45691;-55
2022/08/08 10:52:35;;;;;;;;;3.50;3.00;;;;;41.49;14.29;101701.31;5081570;27;45264;-56
2022/08/08 10:55:02;;;;;;;;;3.50;3.25;;;;;41.56;15.07;101688.34;5075773;27;45330;-55
2022/08/08 10:57:27;;;;;;;;;2.00;2.00;;;;;41.76;13.18;101695.63;5063975;28;47195;-55
2022/08/08 10:59:55;;;;;;;;;2.00;2.00;;;;;41.92;14.45;101695.84;5077357;27;59174;-56
2022/08/08 11:02:27;;;;;;;;;5.75;3.00;;;;;42.08;12.62;101696.38;5079967;27;45496;-54
2022/08/08 11:04:57;;;;;;;;;5.75;3.75;;;;;42.02;13.43;101694.47;5074572;27;45331;-56
2022/08/08 11:07:34;;;;;;;;;2.75;2.75;;;;;41.60;13.21;101697.00;5077158;27;47113;-56
2022/08/08 11:10:11;;;;;;;;;4.75;4.00;;;;;40.66;14.00;101688.50;5081103;27;45295;-56
2022/08/08 11:12:48;;;;;;;;;3.75;2.00;;;;;39.68;14.48;101702.03;5070473;27;45300;-56
2022/08/08 11:15:16;;;;;;;;;3.75;2.00;;;;;38.81;15.59;101697.44;5080103;27;45434;-55
2022/08/08 11:17:43;;;;;;;;;4.25;4.00;;;;;38.03;14.98;101690.28;5071473;28;47269;-54
2022/08/08 11:20:10;;;;;;;;;3.00;3.00;;;;;37.27;15.70;101690.06;5079504;28;45433;-54
2022/08/08 11:22:37;;;;;;;;;9.50;4.50;;;;;36.72;16.55;101685.03;5088240;27;45420;-54
2022/08/08 11:25:06;;;;;;;;;4.25;2.50;;;;;36.51;16.96;101687.69;5079772;27;45378;-52
2022/08/08 11:27:33;;;;;;;;;3.25;3.00;;;;;36.41;16.79;101685.28;5072179;28;45699;-53
2022/08/08 11:29:59;;;;;;;;;4.75;3.25;;;;;36.48;17.14;101684.31;5080407;27;45383;-55
2022/08/08 11:32:26;;;;;;;;;6.00;4.00;;;;;36.73;16.80;101673.13;5072748;27;45447;-54
2022/08/08 11:35:19;;;;;;;;;3.00;3.00;;;;;37.10;16.70;101676.66;5065927;27;45427;-54
2022/08/08 11:37:45;;;;;;;;;7.50;4.50;;;;;37.43;15.84;101681.59;5075380;27;46564;-54
2022/08/08 11:40:12;;;;;;;;;3.00;3.00;;;;;37.52;15.45;101668.66;5078627;27;60692;-53
2022/08/08 11:42:38;;;;;;;;;5.00;3.00;;;;;37.59;15.26;101673.16;5073991;27;45429;-53
2022/08/08 11:45:05;;;;;;;;;1.75;1.00;;;;;37.85;15.61;101668.94;5067142;28;45356;-52
2022/08/08 11:47:32;;;;;;;;;6.25;4.25;;;;;38.22;15.07;101666.03;5072620;27;45318;-53
2022/08/08 11:50:00;;;;;;;;;1.75;1.75;;;;;38.40;15.41;101663.59;5070039;28;46021;-55
2022/08/08 11:52:26;;;;;;;;;6.00;2.00;;;;;38.55;14.66;101672.50;5090430;27;45428;-53
2022/08/08 11:54:51;;;;;;;;;3.75;3.00;;;;;38.64;13.80;101677.78;5069694;28;45376;-54
2022/08/08 11:57:16;;;;;;;;;4.50;2.00;;;;;38.78;14.22;101662.28;5078652;27;47025;-55
2022/08/08 12:00:03;;;;;;;;;4.00;4.00;;;;;39.00;14.64;101668.44;5080631;27;45323;-55
2022/08/08 12:02:30;;;;;;;;;2.50;2.50;;;;;39.13;14.95;101668.47;5078047;28;45461;-52
2022/08/08 12:05:11;;;;;;;;;3.50;2.25;;;;;39.03;13.90;101657.94;5070457;27;45648;-53